Highest pressure

Not for real navigation. The accuracy of this data is not assured See disclaimer for more information



ICAO NAME COUNTRY WIND Kt GUST Kt VIS m TEMP/DEW C BARO METAR
SLLP La Paz / Alto Bolivia 8 0 9999 17/0 30.68 SLLP 221900Z 09008KT 040V140 9999 FEW020 FEW023CB BKN200 17/M00 Q1039
SPJL Juliaca Peru 12 0 9999 19/-2 30.56 SPJL 222000Z 11012KT 9999 SCT020 BKN065 19/M02 Q1035 RMK PP000
FYKT Keetmanshoop Namibia 8 0 9999 19/-10 30.53 FYKT 221900Z AUTO 20008KT //// // ////// 19/M10 Q1034
KCPW Pagosa Springs, Wolf Creek Pas CO United States 17 22 9999 7/-6 30.53 KCPW 221947Z AUTO 21017G22KT 10SM CAVOK 07/M06 A3053 RMK AO2
SLOR Oruro Bolivia 14 0 9999 18/5 30.53 SLOR 221900Z 36014KT 9999 VCTS SCT023 FEW025CB BKN200 18/05 Q1034

Show more